Terminal Aerodrome Forecast
Issued by NWS

Home | Current Version | Previous Version | Text Only | Print | Product List | Glossary On
Versions: 1 2 3 4 5 6 7 8 9 10 11 12 13 14 15 16 17 18 19 20 21
000
FTUS44 KLZK 242300
TAFLIT
TAF
KLIT 242320Z 2500/2524 26009KT P6SM OVC040
     FM250200 26003KT P6SM BKN040
     FM250600 28005KT P6SM SCT040
     FM251500 19010G20KT P6SM SCT250=

USA.gov is the U.S. government's official web portal to all federal, state and local government web resources and services.